sensor_id;sensor_type;location;lat;lon;timestamp;pressure;altitude;pressure_sealevel;temperature;humidity
68145;BME280;55400;51.824;-0.196;2022-10-16T00:01:34;99541.13;;;11.36;70.24
68145;BME280;55400;51.824;-0.196;2022-10-16T00:04:01;99542.91;;;11.35;70.37
68145;BME280;55400;51.824;-0.196;2022-10-16T00:06:28;99552.75;;;11.33;70.37
68145;BME280;55400;51.824;-0.196;2022-10-16T00:08:54;99553.56;;;11.34;70.30
68145;BME280;55400;51.824;-0.196;2022-10-16T00:11:26;99558.97;;;11.32;70.56
68145;BME280;55400;51.824;-0.196;2022-10-16T00:13:56;99556.41;;;11.31;70.62
68145;BME280;55400;51.824;-0.196;2022-10-16T00:16:22;99552.13;;;11.30;70.77
68145;BME280;55400;51.824;-0.196;2022-10-16T00:18:47;99548.72;;;11.28;70.29
68145;BME280;55400;51.824;-0.196;2022-10-16T00:21:22;99542.69;;;11.26;70.71
68145;BME280;55400;51.824;-0.196;2022-10-16T00:23:53;99542.78;;;11.24;70.88
68145;BME280;55400;51.824;-0.196;2022-10-16T00:26:19;99547.13;;;11.25;70.98
68145;BME280;55400;51.824;-0.196;2022-10-16T00:28:46;99550.81;;;11.23;70.69
68145;BME280;55400;51.824;-0.196;2022-10-16T00:31:13;99557.91;;;11.22;70.80
68145;BME280;55400;51.824;-0.196;2022-10-16T00:33:39;99551.00;;;11.20;71.00
68145;BME280;55400;51.824;-0.196;2022-10-16T00:36:07;99553.66;;;11.20;70.71
68145;BME280;55400;51.824;-0.196;2022-10-16T00:38:32;99568.56;;;11.21;70.77
68145;BME280;55400;51.824;-0.196;2022-10-16T00:40:59;99561.56;;;11.20;70.89
68145;BME280;55400;51.824;-0.196;2022-10-16T00:43:55;99559.13;;;11.16;70.75
68145;BME280;55400;51.824;-0.196;2022-10-16T00:46:27;99556.50;;;11.16;70.68
68145;BME280;55400;51.824;-0.196;2022-10-16T00:51:39;99563.69;;;11.14;71.20
68145;BME280;55400;51.824;-0.196;2022-10-16T00:54:12;99564.63;;;11.13;71.13
68145;BME280;55400;51.824;-0.196;2022-10-16T00:56:39;99568.97;;;11.14;70.42
68145;BME280;55400;51.824;-0.196;2022-10-16T00:59:11;99576.00;;;11.14;71.17
68145;BME280;55400;51.824;-0.196;2022-10-16T01:01:39;99567.25;;;11.13;71.22
68145;BME280;55400;51.824;-0.196;2022-10-16T01:04:04;99565.56;;;11.12;70.73
68145;BME280;55400;51.824;-0.196;2022-10-16T01:17:13;99596.56;;;11.09;71.24
68145;BME280;55400;51.824;-0.196;2022-10-16T01:22:19;99580.66;;;11.10;70.81
68145;BME280;55400;51.824;-0.196;2022-10-16T01:24:49;99584.78;;;11.14;70.78
68145;BME280;55400;51.824;-0.196;2022-10-16T01:27:25;99581.47;;;11.11;70.79
68145;BME280;55400;51.824;-0.196;2022-10-16T01:30:12;99590.47;;;11.08;71.25
68145;BME280;55400;51.824;-0.196;2022-10-16T01:32:42;99590.47;;;11.08;71.26
68145;BME280;55400;51.824;-0.196;2022-10-16T01:35:26;99585.19;;;11.08;71.32
68145;BME280;55400;51.824;-0.196;2022-10-16T01:38:26;99592.53;;;11.03;71.31
68145;BME280;55400;51.824;-0.196;2022-10-16T01:41:00;99596.03;;;11.04;70.97
68145;BME280;55400;51.824;-0.196;2022-10-16T01:43:33;99594.22;;;11.04;71.23
68145;BME280;55400;51.824;-0.196;2022-10-16T01:46:01;99587.06;;;11.06;71.12
68145;BME280;55400;51.824;-0.196;2022-10-16T01:48:26;99602.69;;;11.09;71.50
68145;BME280;55400;51.824;-0.196;2022-10-16T01:50:58;99600.03;;;11.09;71.01
68145;BME280;55400;51.824;-0.196;2022-10-16T01:53:25;99591.28;;;11.09;71.43
68145;BME280;55400;51.824;-0.196;2022-10-16T01:55:53;99585.91;;;11.10;71.11
68145;BME280;55400;51.824;-0.196;2022-10-16T01:58:21;99596.38;;;11.12;70.93
68145;BME280;55400;51.824;-0.196;2022-10-16T02:00:48;99586.03;;;11.09;71.20
68145;BME280;55400;51.824;-0.196;2022-10-16T02:03:16;99596.56;;;11.09;71.27
68145;BME280;55400;51.824;-0.196;2022-10-16T02:05:52;99606.28;;;11.08;71.13
68145;BME280;55400;51.824;-0.196;2022-10-16T02:08:20;99600.16;;;11.08;71.40
68145;BME280;55400;51.824;-0.196;2022-10-16T02:10:47;99598.56;;;11.05;70.92
68145;BME280;55400;51.824;-0.196;2022-10-16T02:15:54;99608.25;;;11.05;70.96
68145;BME280;55400;51.824;-0.196;2022-10-16T02:18:19;99619.69;;;11.05;70.90
68145;BME280;55400;51.824;-0.196;2022-10-16T02:20:53;99613.63;;;11.03;71.23
68145;BME280;55400;51.824;-0.196;2022-10-16T02:26:07;99611.97;;;11.02;70.85
68145;BME280;55400;51.824;-0.196;2022-10-16T02:28:47;99623.44;;;11.01;70.28
68145;BME280;55400;51.824;-0.196;2022-10-16T02:31:20;99624.28;;;11.02;70.69
68145;BME280;55400;51.824;-0.196;2022-10-16T02:33:50;99617.34;;;11.01;70.42
68145;BME280;55400;51.824;-0.196;2022-10-16T02:36:16;99626.28;;;10.98;70.54
68145;BME280;55400;51.824;-0.196;2022-10-16T02:38:42;99627.13;;;10.98;70.38
68145;BME280;55400;51.824;-0.196;2022-10-16T02:41:08;99631.56;;;10.98;70.49
68145;BME280;55400;51.824;-0.196;2022-10-16T02:43:34;99651.72;;;10.99;70.14
68145;BME280;55400;51.824;-0.196;2022-10-16T02:45:59;99649.28;;;10.96;70.24
68145;BME280;55400;51.824;-0.196;2022-10-16T02:48:25;99645.03;;;10.93;70.51
68145;BME280;55400;51.824;-0.196;2022-10-16T02:50:50;99645.13;;;10.92;70.31
68145;BME280;55400;51.824;-0.196;2022-10-16T02:53:16;99643.47;;;10.91;70.31
68145;BME280;55400;51.824;-0.196;2022-10-16T02:55:42;99640.94;;;10.89;69.81
68145;BME280;55400;51.824;-0.196;2022-10-16T02:58:07;99661.16;;;10.89;69.86
68145;BME280;55400;51.824;-0.196;2022-10-16T03:00:33;99661.16;;;10.89;70.03
68145;BME280;55400;51.824;-0.196;2022-10-16T03:02:58;99655.97;;;10.87;69.88
68145;BME280;55400;51.824;-0.196;2022-10-16T03:05:23;99662.22;;;10.86;69.96
68145;BME280;55400;51.824;-0.196;2022-10-16T03:07:49;99662.41;;;10.83;69.71
68145;BME280;55400;51.824;-0.196;2022-10-16T03:10:14;99661.53;;;10.83;69.72
68145;BME280;55400;51.824;-0.196;2022-10-16T03:12:40;99670.41;;;10.82;69.60
68145;BME280;55400;51.824;-0.196;2022-10-16T03:15:05;99669.53;;;10.81;69.83
68145;BME280;55400;51.824;-0.196;2022-10-16T03:17:32;99669.53;;;10.81;69.66
68145;BME280;55400;51.824;-0.196;2022-10-16T03:19:57;99682.00;;;10.79;69.61
68145;BME280;55400;51.824;-0.196;2022-10-16T03:22:23;99689.06;;;10.78;69.78
68145;BME280;55400;51.824;-0.196;2022-10-16T03:24:48;99682.94;;;10.78;69.48
68145;BME280;55400;51.824;-0.196;2022-10-16T03:27:13;99690.94;;;10.76;69.53
68145;BME280;55400;51.824;-0.196;2022-10-16T03:29:39;99693.66;;;10.75;69.21
68145;BME280;55400;51.824;-0.196;2022-10-16T03:32:04;99696.28;;;10.75;69.37
68145;BME280;55400;51.824;-0.196;2022-10-16T03:34:30;99701.66;;;10.73;69.39
68145;BME280;55400;51.824;-0.196;2022-10-16T03:36:55;99701.75;;;10.72;69.84
68145;BME280;55400;51.824;-0.196;2022-10-16T03:39:20;99708.09;;;10.69;69.88
68145;BME280;55400;51.824;-0.196;2022-10-16T03:41:46;99714.47;;;10.65;69.56
68145;BME280;55400;51.824;-0.196;2022-10-16T03:44:12;99718.06;;;10.64;69.71
68145;BME280;55400;51.824;-0.196;2022-10-16T03:46:37;99711.19;;;10.61;69.73
68145;BME280;55400;51.824;-0.196;2022-10-16T03:49:03;99710.31;;;10.61;69.71
68145;BME280;55400;51.824;-0.196;2022-10-16T03:51:28;99715.69;;;10.59;69.82
68145;BME280;55400;51.824;-0.196;2022-10-16T03:53:54;99721.06;;;10.58;69.70
68145;BME280;55400;51.824;-0.196;2022-10-16T03:56:19;99720.31;;;10.56;70.29
68145;BME280;55400;51.824;-0.196;2022-10-16T03:58:44;99721.38;;;10.53;69.72
68145;BME280;55400;51.824;-0.196;2022-10-16T04:01:10;99740.66;;;10.54;69.69
68145;BME280;55400;51.824;-0.196;2022-10-16T04:03:35;99729.38;;;10.52;69.89
68145;BME280;55400;51.824;-0.196;2022-10-16T04:06:00;99740.75;;;10.52;69.79
68145;BME280;55400;51.824;-0.196;2022-10-16T04:08:26;99748.75;;;10.51;70.28
68145;BME280;55400;51.824;-0.196;2022-10-16T04:10:51;99756.00;;;10.47;70.29
68145;BME280;55400;51.824;-0.196;2022-10-16T04:13:17;99753.66;;;10.42;70.21
68145;BME280;55400;51.824;-0.196;2022-10-16T04:15:44;99757.22;;;10.41;70.23
68145;BME280;55400;51.824;-0.196;2022-10-16T04:18:10;99757.38;;;10.38;70.67
68145;BME280;55400;51.824;-0.196;2022-10-16T04:20:35;99770.56;;;10.38;70.70
68145;BME280;55400;51.824;-0.196;2022-10-16T04:23:00;99767.19;;;10.36;70.70
68145;BME280;55400;51.824;-0.196;2022-10-16T04:25:26;99777.81;;;10.35;70.42
68145;BME280;55400;51.824;-0.196;2022-10-16T04:27:55;99780.59;;;10.32;70.46
68145;BME280;55400;51.824;-0.196;2022-10-16T04:30:21;99787.72;;;10.30;70.80
68145;BME280;55400;51.824;-0.196;2022-10-16T04:32:51;99790.63;;;10.25;71.04
68145;BME280;55400;51.824;-0.196;2022-10-16T04:35:18;99789.78;;;10.24;71.34
68145;BME280;55400;51.824;-0.196;2022-10-16T04:37:44;99800.31;;;10.24;71.04
68145;BME280;55400;51.824;-0.196;2022-10-16T04:40:10;99797.78;;;10.23;71.36
68145;BME280;55400;51.824;-0.196;2022-10-16T04:42:35;99805.69;;;10.23;71.32
68145;BME280;55400;51.824;-0.196;2022-10-16T04:45:01;99805.69;;;10.23;71.19
68145;BME280;55400;51.824;-0.196;2022-10-16T04:47:26;99821.50;;;10.23;71.30
68145;BME280;55400;51.824;-0.196;2022-10-16T04:49:52;99824.22;;;10.21;71.42
68145;BME280;55400;51.824;-0.196;2022-10-16T04:52:17;99826.19;;;10.18;71.69
68145;BME280;55400;51.824;-0.196;2022-10-16T04:54:44;99834.94;;;10.18;71.36
68145;BME280;55400;51.824;-0.196;2022-10-16T04:57:10;99845.56;;;10.17;71.90
68145;BME280;55400;51.824;-0.196;2022-10-16T04:59:36;99850.84;;;10.17;71.57
68145;BME280;55400;51.824;-0.196;2022-10-16T05:02:01;99865.88;;;10.15;71.47
68145;BME280;55400;51.824;-0.196;2022-10-16T05:04:27;99873.13;;;10.11;72.07
68145;BME280;55400;51.824;-0.196;2022-10-16T05:06:52;99877.53;;;10.11;71.90
68145;BME280;55400;51.824;-0.196;2022-10-16T05:09:17;99880.94;;;10.13;71.70
68145;BME280;55400;51.824;-0.196;2022-10-16T05:11:43;99875.84;;;10.09;71.63
68145;BME280;55400;51.824;-0.196;2022-10-16T05:14:08;99878.47;;;10.09;71.68
68145;BME280;55400;51.824;-0.196;2022-10-16T05:16:34;99883.75;;;10.09;71.80
68145;BME280;55400;51.824;-0.196;2022-10-16T05:18:59;99886.47;;;10.08;72.00
68145;BME280;55400;51.824;-0.196;2022-10-16T05:21:25;99897.09;;;10.06;71.86
68145;BME280;55400;51.824;-0.196;2022-10-16T05:23:50;99900.66;;;10.05;72.18
68145;BME280;55400;51.824;-0.196;2022-10-16T05:26:16;99910.34;;;10.05;72.15
68145;BME280;55400;51.824;-0.196;2022-10-16T05:28:41;99916.78;;;9.99;72.42
68145;BME280;55400;51.824;-0.196;2022-10-16T05:31:07;99912.44;;;9.98;72.11
68145;BME280;55400;51.824;-0.196;2022-10-16T05:33:33;99915.94;;;9.99;72.54
68145;BME280;55400;51.824;-0.196;2022-10-16T05:36:07;99913.56;;;9.94;72.46
68145;BME280;55400;51.824;-0.196;2022-10-16T05:38:34;99926.66;;;9.96;72.36
68145;BME280;55400;51.824;-0.196;2022-10-16T05:41:00;99922.31;;;9.95;72.72
68145;BME280;55400;51.824;-0.196;2022-10-16T05:43:27;99926.91;;;9.91;72.85
68145;BME280;55400;51.824;-0.196;2022-10-16T05:45:57;99928.59;;;9.92;72.68
68145;BME280;55400;51.824;-0.196;2022-10-16T05:48:23;99935.72;;;9.90;72.74
68145;BME280;55400;51.824;-0.196;2022-10-16T05:50:59;99934.03;;;9.89;72.48
68145;BME280;55400;51.824;-0.196;2022-10-16T05:53:26;99939.38;;;9.87;72.65
68145;BME280;55400;51.824;-0.196;2022-10-16T05:55:53;99944.81;;;9.84;72.93
68145;BME280;55400;51.824;-0.196;2022-10-16T05:58:19;99945.06;;;9.80;72.93
68145;BME280;55400;51.824;-0.196;2022-10-16T06:00:44;99946.84;;;9.79;73.11
68145;BME280;55400;51.824;-0.196;2022-10-16T06:03:09;99961.00;;;9.77;73.19
68145;BME280;55400;51.824;-0.196;2022-10-16T06:05:35;99954.16;;;9.74;73.58
68145;BME280;55400;51.824;-0.196;2022-10-16T06:08:00;99961.00;;;9.77;73.31
68145;BME280;55400;51.824;-0.196;2022-10-16T06:10:25;99960.19;;;9.76;73.30
68145;BME280;55400;51.824;-0.196;2022-10-16T06:12:51;99963.56;;;9.78;73.45
68145;BME280;55400;51.824;-0.196;2022-10-16T06:15:16;99968.75;;;9.80;73.18
68145;BME280;55400;51.824;-0.196;2022-10-16T06:17:42;99968.06;;;9.76;72.89
68145;BME280;55400;51.824;-0.196;2022-10-16T06:20:07;99973.34;;;9.76;73.10
68145;BME280;55400;51.824;-0.196;2022-10-16T06:22:45;99983.13;;;9.74;73.01
68145;BME280;55400;51.824;-0.196;2022-10-16T06:25:10;99986.66;;;9.73;73.36
68145;BME280;55400;51.824;-0.196;2022-10-16T06:27:35;99986.66;;;9.73;73.28
68145;BME280;55400;51.824;-0.196;2022-10-16T06:30:01;99985.81;;;9.72;73.35
68145;BME280;55400;51.824;-0.196;2022-10-16T06:32:27;99995.59;;;9.70;73.21
68145;BME280;55400;51.824;-0.196;2022-10-16T06:34:52;99990.41;;;9.69;73.15
68145;BME280;55400;51.824;-0.196;2022-10-16T06:37:18;99993.13;;;9.67;73.31
68145;BME280;55400;51.824;-0.196;2022-10-16T06:39:43;100004.56;;;9.66;73.61
68145;BME280;55400;51.824;-0.196;2022-10-16T06:42:09;100001.34;;;9.61;73.39
68145;BME280;55400;51.824;-0.196;2022-10-16T06:44:34;100013.72;;;9.59;73.65
68145;BME280;55400;51.824;-0.196;2022-10-16T06:46:59;100023.41;;;9.59;73.88
68145;BME280;55400;51.824;-0.196;2022-10-16T06:49:25;100017.38;;;9.57;73.68
68145;BME280;55400;51.824;-0.196;2022-10-16T06:51:50;100020.94;;;9.55;73.70
68145;BME280;55400;51.824;-0.196;2022-10-16T06:54:16;100027.03;;;9.56;74.04
68145;BME280;55400;51.824;-0.196;2022-10-16T06:56:42;100034.94;;;9.56;74.00
68145;BME280;55400;51.824;-0.196;2022-10-16T06:59:08;100028.00;;;9.55;74.03
68145;BME280;55400;51.824;-0.196;2022-10-16T07:01:34;100036.72;;;9.55;73.81
68145;BME280;55400;51.824;-0.196;2022-10-16T07:04:00;100039.28;;;9.57;73.74
68145;BME280;55400;51.824;-0.196;2022-10-16T07:06:27;100054.91;;;9.60;73.60
68145;BME280;55400;51.824;-0.196;2022-10-16T07:08:52;100053.03;;;9.62;73.56
68145;BME280;55400;51.824;-0.196;2022-10-16T07:11:20;100064.53;;;9.61;73.64
68145;BME280;55400;51.824;-0.196;2022-10-16T07:13:47;100077.59;;;9.63;74.02
68145;BME280;55400;51.824;-0.196;2022-10-16T07:16:15;100067.91;;;9.63;73.81
68145;BME280;55400;51.824;-0.196;2022-10-16T07:18:41;100072.25;;;9.64;73.89
68145;BME280;55400;51.824;-0.196;2022-10-16T07:21:10;100084.78;;;9.59;74.33
68145;BME280;55400;51.824;-0.196;2022-10-16T07:23:37;100085.50;;;9.63;73.83
68145;BME280;55400;51.824;-0.196;2022-10-16T07:26:03;100098.59;;;9.64;73.53
68145;BME280;55400;51.824;-0.196;2022-10-16T07:28:29;100100.19;;;9.67;74.02
68145;BME280;55400;51.824;-0.196;2022-10-16T07:30:54;100101.06;;;9.67;73.38
68145;BME280;55400;51.824;-0.196;2022-10-16T07:33:20;100101.06;;;9.67;73.56
68145;BME280;55400;51.824;-0.196;2022-10-16T07:35:53;100103.53;;;9.70;73.59
68145;BME280;55400;51.824;-0.196;2022-10-16T07:38:21;100114.06;;;9.70;73.91
68145;BME280;55400;51.824;-0.196;2022-10-16T07:40:46;100115.91;;;9.68;73.79
68145;BME280;55400;51.824;-0.196;2022-10-16T07:43:13;100115.00;;;9.69;73.62
68145;BME280;55400;51.824;-0.196;2022-10-16T07:45:49;100113.13;;;9.71;73.52
68145;BME280;55400;51.824;-0.196;2022-10-16T07:48:15;100126.13;;;9.75;73.51
68145;BME280;55400;51.824;-0.196;2022-10-16T07:50:40;100130.47;;;9.76;74.09
68145;BME280;55400;51.824;-0.196;2022-10-16T07:53:06;100124.25;;;9.77;73.78
68145;BME280;55400;51.824;-0.196;2022-10-16T07:55:32;100125.81;;;9.81;73.84
68145;BME280;55400;51.824;-0.196;2022-10-16T07:57:57;100132.81;;;9.82;73.77
68145;BME280;55400;51.824;-0.196;2022-10-16T08:00:23;100140.47;;;9.86;73.74
68145;BME280;55400;51.824;-0.196;2022-10-16T08:02:48;100142.16;;;9.87;73.53
68145;BME280;55400;51.824;-0.196;2022-10-16T08:05:14;100145.56;;;9.89;73.81
68145;BME280;55400;51.824;-0.196;2022-10-16T08:07:39;100150.75;;;9.91;73.23
68145;BME280;55400;51.824;-0.196;2022-10-16T08:10:05;100158.59;;;9.93;73.51
68145;BME280;55400;51.824;-0.196;2022-10-16T08:12:30;100160.28;;;9.94;73.32
68145;BME280;55400;51.824;-0.196;2022-10-16T08:14:56;100157.56;;;9.95;73.41
68145;BME280;55400;51.824;-0.196;2022-10-16T08:17:21;100164.38;;;9.99;73.21
68145;BME280;55400;51.824;-0.196;2022-10-16T08:19:47;100160.75;;;10.02;73.26
68145;BME280;55400;51.824;-0.196;2022-10-16T08:22:16;100164.16;;;10.04;73.14
68145;BME280;55400;51.824;-0.196;2022-10-16T08:24:41;100168.50;;;10.05;73.44
68145;BME280;55400;51.824;-0.196;2022-10-16T08:27:07;100170.09;;;10.07;73.00
68145;BME280;55400;51.824;-0.196;2022-10-16T08:29:34;100176.94;;;10.12;73.02
68145;BME280;55400;51.824;-0.196;2022-10-16T08:31:59;100185.50;;;10.15;73.21
68145;BME280;55400;51.824;-0.196;2022-10-16T08:34:34;100172.19;;;10.18;72.73
68145;BME280;55400;51.824;-0.196;2022-10-16T08:37:05;100176.53;;;10.19;72.65
68145;BME280;55400;51.824;-0.196;2022-10-16T08:39:32;100187.69;;;10.24;73.15
68145;BME280;55400;51.824;-0.196;2022-10-16T08:50:30;100206.19;;;10.40;72.75
68145;BME280;55400;51.824;-0.196;2022-10-16T08:52:56;100216.44;;;10.47;72.32
68145;BME280;55400;51.824;-0.196;2022-10-16T08:55:38;100212.69;;;10.51;71.89
68145;BME280;55400;51.824;-0.196;2022-10-16T08:58:15;100217.66;;;10.57;72.21
68145;BME280;55400;51.824;-0.196;2022-10-16T09:00:42;100224.44;;;10.61;72.20
68145;BME280;55400;51.824;-0.196;2022-10-16T09:17:00;100251.66;;;10.95;71.33
68145;BME280;55400;51.824;-0.196;2022-10-16T09:19:34;100258.66;;;10.96;71.38
68145;BME280;55400;51.824;-0.196;2022-10-16T09:22:11;100248.84;;;10.98;71.21
68145;BME280;55400;51.824;-0.196;2022-10-16T09:24:37;100250.31;;;11.04;71.46
68145;BME280;55400;51.824;-0.196;2022-10-16T09:27:03;100258.00;;;11.08;71.49
68145;BME280;55400;51.824;-0.196;2022-10-16T09:29:28;100259.69;;;11.09;71.17
68145;BME280;55400;51.824;-0.196;2022-10-16T09:31:55;100261.31;;;11.12;71.05
68145;BME280;55400;51.824;-0.196;2022-10-16T09:34:34;100264.63;;;11.15;70.98
68145;BME280;55400;51.824;-0.196;2022-10-16T09:37:04;100257.50;;;11.18;71.04
68145;BME280;55400;51.824;-0.196;2022-10-16T09:39:53;100264.19;;;11.23;71.23
68145;BME280;55400;51.824;-0.196;2022-10-16T09:42:22;100256.91;;;11.28;70.81
68145;BME280;55400;51.824;-0.196;2022-10-16T09:44:50;100255.69;;;11.34;71.05
68145;BME280;55400;51.824;-0.196;2022-10-16T09:47:37;100257.25;;;11.38;70.78
68145;BME280;55400;51.824;-0.196;2022-10-16T09:50:24;100264.28;;;11.38;71.04
68145;BME280;55400;51.824;-0.196;2022-10-16T09:53:02;100257.75;;;11.45;70.92
68145;BME280;55400;51.824;-0.196;2022-10-16T09:55:27;100259.19;;;11.50;70.77
68145;BME280;55400;51.824;-0.196;2022-10-16T09:57:54;100259.69;;;11.57;70.49
68145;BME280;55400;51.824;-0.196;2022-10-16T10:00:21;100260.28;;;11.62;70.58
68145;BME280;55400;51.824;-0.196;2022-10-16T10:02:47;100263.34;;;11.70;70.71
68145;BME280;55400;51.824;-0.196;2022-10-16T10:07:57;100265.63;;;11.77;69.80
68145;BME280;55400;51.824;-0.196;2022-10-16T10:10:29;100261.69;;;11.84;69.97
68145;BME280;55400;51.824;-0.196;2022-10-16T10:12:55;100259.81;;;11.86;69.80
68145;BME280;55400;51.824;-0.196;2022-10-16T10:15:22;100263.16;;;11.89;70.04
68145;BME280;55400;51.824;-0.196;2022-10-16T10:17:54;100276.22;;;11.93;69.39
68145;BME280;55400;51.824;-0.196;2022-10-16T10:20:35;100269.03;;;11.95;69.21
68145;BME280;55400;51.824;-0.196;2022-10-16T10:23:24;100273.31;;;11.97;68.95
68145;BME280;55400;51.824;-0.196;2022-10-16T10:25:56;100275.59;;;12.03;69.54
68145;BME280;55400;51.824;-0.196;2022-10-16T10:28:54;100280.59;;;12.08;69.28
68145;BME280;55400;51.824;-0.196;2022-10-16T10:31:41;100283.06;;;12.11;69.19
68145;BME280;55400;51.824;-0.196;2022-10-16T10:36:53;100271.34;;;12.15;69.04
68145;BME280;55400;51.824;-0.196;2022-10-16T10:52:53;100265.00;;;12.34;68.14
68145;BME280;55400;51.824;-0.196;2022-10-16T10:58:25;100271.63;;;12.41;67.60
68145;BME280;55400;51.824;-0.196;2022-10-16T11:06:30;100272.84;;;12.50;67.93
68145;BME280;55400;51.824;-0.196;2022-10-16T11:09:06;100273.22;;;12.58;67.83
68145;BME280;55400;51.824;-0.196;2022-10-16T11:11:40;100272.00;;;12.64;67.48
68145;BME280;55400;51.824;-0.196;2022-10-16T11:14:30;100280.31;;;12.72;67.41
68145;BME280;55400;51.824;-0.196;2022-10-16T11:17:05;100274.75;;;12.76;67.16
68145;BME280;55400;51.824;-0.196;2022-10-16T11:22:29;100265.69;;;12.81;66.40
68145;BME280;55400;51.824;-0.196;2022-10-16T11:25:13;100269.00;;;12.84;66.25
68145;BME280;55400;51.824;-0.196;2022-10-16T11:28:03;100266.94;;;12.89;66.37
68145;BME280;55400;51.824;-0.196;2022-10-16T11:30:41;100265.03;;;12.91;65.79
68145;BME280;55400;51.824;-0.196;2022-10-16T11:35:47;100260.19;;;12.98;66.23
68145;BME280;55400;51.824;-0.196;2022-10-16T11:41:26;100275.59;;;13.06;65.21
68145;BME280;55400;51.824;-0.196;2022-10-16T11:46:32;100264.16;;;13.20;65.20
68145;BME280;55400;51.824;-0.196;2022-10-16T11:49:08;100270.88;;;13.25;65.47
68145;BME280;55400;51.824;-0.196;2022-10-16T11:51:39;100264.50;;;13.28;65.13
68145;BME280;55400;51.824;-0.196;2022-10-16T11:54:30;100262.72;;;13.28;64.58
68145;BME280;55400;51.824;-0.196;2022-10-16T11:57:02;100258.03;;;13.34;65.05
68145;BME280;55400;51.824;-0.196;2022-10-16T11:59:42;100267.34;;;13.39;64.61
68145;BME280;55400;51.824;-0.196;2022-10-16T12:05:06;100265.19;;;13.46;64.79
68145;BME280;55400;51.824;-0.196;2022-10-16T12:07:41;100263.91;;;13.52;64.16
68145;BME280;55400;51.824;-0.196;2022-10-16T12:10:28;100262.78;;;13.56;63.73
68145;BME280;55400;51.824;-0.196;2022-10-16T12:12:54;100259.00;;;13.60;64.65
68145;BME280;55400;51.824;-0.196;2022-10-16T12:15:21;100270.13;;;13.65;64.47
68145;BME280;55400;51.824;-0.196;2022-10-16T12:17:47;100258.59;;;13.66;64.34
68145;BME280;55400;51.824;-0.196;2022-10-16T12:22:47;100263.13;;;13.64;64.18
68145;BME280;55400;51.824;-0.196;2022-10-16T12:25:38;100270.44;;;13.60;63.40
68145;BME280;55400;51.824;-0.196;2022-10-16T12:30:42;100267.47;;;13.65;63.51
68145;BME280;55400;51.824;-0.196;2022-10-16T12:33:39;100264.63;;;13.68;62.48
68145;BME280;55400;51.824;-0.196;2022-10-16T12:36:13;100271.34;;;13.74;63.21
68145;BME280;55400;51.824;-0.196;2022-10-16T12:38:48;100276.31;;;13.78;63.02
68145;BME280;55400;51.824;-0.196;2022-10-16T12:41:30;100262.03;;;13.81;62.53
68145;BME280;55400;51.824;-0.196;2022-10-16T12:43:56;100261.72;;;13.85;62.88
68145;BME280;55400;51.824;-0.196;2022-10-16T12:46:35;100258.88;;;13.89;62.59
68145;BME280;55400;51.824;-0.196;2022-10-16T12:51:41;100256.84;;;13.92;61.72
68145;BME280;55400;51.824;-0.196;2022-10-16T13:02:08;100268.34;;;14.06;62.13
68145;BME280;55400;51.824;-0.196;2022-10-16T13:07:41;100262.66;;;14.12;62.34
68145;BME280;55400;51.824;-0.196;2022-10-16T13:10:17;100261.59;;;14.14;62.54
68145;BME280;55400;51.824;-0.196;2022-10-16T13:29:52;100258.50;;;14.08;61.68
68145;BME280;55400;51.824;-0.196;2022-10-16T13:32:20;100259.56;;;14.05;62.39
68145;BME280;55400;51.824;-0.196;2022-10-16T13:34:48;100258.69;;;14.04;62.21
68145;BME280;55400;51.824;-0.196;2022-10-16T13:37:22;100265.81;;;14.04;61.93
68145;BME280;55400;51.824;-0.196;2022-10-16T13:39:48;100263.16;;;14.04;62.06
68145;BME280;55400;51.824;-0.196;2022-10-16T13:42:26;100256.91;;;14.05;61.90
68145;BME280;55400;51.824;-0.196;2022-10-16T13:44:55;100251.50;;;14.07;62.18
68145;BME280;55400;51.824;-0.196;2022-10-16T13:47:23;100262.00;;;14.08;62.23
68145;BME280;55400;51.824;-0.196;2022-10-16T13:50:05;100253.19;;;14.08;61.62
68145;BME280;55400;51.824;-0.196;2022-10-16T13:52:31;100252.25;;;14.09;62.33
68145;BME280;55400;51.824;-0.196;2022-10-16T13:54:57;100248.44;;;14.13;62.61
68145;BME280;55400;51.824;-0.196;2022-10-16T13:57:24;100245.25;;;14.20;62.20
68145;BME280;55400;51.824;-0.196;2022-10-16T13:59:50;100246.44;;;14.29;62.22
68145;BME280;55400;51.824;-0.196;2022-10-16T14:04:47;100253.03;;;14.49;62.30
68145;BME280;55400;51.824;-0.196;2022-10-16T14:07:26;100242.72;;;14.57;61.91
68145;BME280;55400;51.824;-0.196;2022-10-16T14:09:53;100241.28;;;14.66;61.83
68145;BME280;55400;51.824;-0.196;2022-10-16T14:12:19;100240.00;;;14.72;61.57
68145;BME280;55400;51.824;-0.196;2022-10-16T14:14:48;100229.81;;;14.79;61.45
68145;BME280;55400;51.824;-0.196;2022-10-16T14:19:46;100226.50;;;14.88;61.18
68145;BME280;55400;51.824;-0.196;2022-10-16T14:24:55;100220.66;;;14.96;60.94
68145;BME280;55400;51.824;-0.196;2022-10-16T14:27:33;100219.56;;;14.98;60.85
68145;BME280;55400;51.824;-0.196;2022-10-16T14:30:12;100232.00;;;14.98;60.45
68145;BME280;55400;51.824;-0.196;2022-10-16T14:32:41;100231.16;;;14.97;60.58
68145;BME280;55400;51.824;-0.196;2022-10-16T14:35:27;100224.78;;;15.00;61.52
68145;BME280;55400;51.824;-0.196;2022-10-16T14:37:54;100227.94;;;15.05;61.80
68145;BME280;55400;51.824;-0.196;2022-10-16T14:40:23;100225.72;;;15.11;61.41
68145;BME280;55400;51.824;-0.196;2022-10-16T14:42:50;100220.28;;;15.13;61.21
68145;BME280;55400;51.824;-0.196;2022-10-16T14:45:26;100226.56;;;15.12;61.05
68145;BME280;55400;51.824;-0.196;2022-10-16T14:47:54;100216.88;;;15.11;61.51
68145;BME280;55400;51.824;-0.196;2022-10-16T14:50:21;100221.34;;;15.10;61.49
68145;BME280;55400;51.824;-0.196;2022-10-16T14:52:47;100213.50;;;15.09;61.24
68145;BME280;55400;51.824;-0.196;2022-10-16T14:55:14;100214.66;;;15.05;61.21
68145;BME280;55400;51.824;-0.196;2022-10-16T14:57:39;100226.38;;;15.02;60.99
68145;BME280;55400;51.824;-0.196;2022-10-16T15:00:22;100229.25;;;14.99;61.19
68145;BME280;55400;51.824;-0.196;2022-10-16T15:02:49;100235.50;;;14.98;61.38
68145;BME280;55400;51.824;-0.196;2022-10-16T15:07:47;100237.53;;;14.94;61.15
68145;BME280;55400;51.824;-0.196;2022-10-16T15:10:15;100238.38;;;14.95;61.36